Time;durP1;ratioP1;P1;durP2;ratioP2;P2;SDS_P1;SDS_P2;PMS_P1;PMS_P2;Temp;Humidity;BMP_temperature;BMP_pressure;BME280_temperature;BME280_humidity;BME280_pressure;Samples;Min_cycle;Max_cycle;Signal;HPM_P1;HPM_P2
2022/03/08 00:01:45;;;;;;;13.15;8.68;;;1.30;99.90;;;;;;5040365;28;20568;-74
2022/03/08 00:04:10;;;;;;;19.75;9.43;;;1.20;99.90;;;;;;5040047;28;20037;-75
2022/03/08 00:06:36;;;;;;;18.00;8.57;;;1.20;99.90;;;;;;5040410;28;20179;-74
2022/03/08 00:09:02;;;;;;;13.23;8.63;;;1.10;99.90;;;;;;5040854;28;20108;-74
2022/03/08 00:11:27;;;;;;;11.80;6.88;;;1.10;99.90;;;;;;5039619;28;20348;-74
2022/03/08 00:13:53;;;;;;;12.00;8.27;;;1.00;99.90;;;;;;5040505;28;20048;-74
2022/03/08 00:16:19;;;;;;;14.55;8.70;;;1.10;99.90;;;;;;5040553;28;20473;-74
2022/03/08 00:18:45;;;;;;;14.57;9.30;;;1.00;99.90;;;;;;5040907;28;20486;-74
2022/03/08 00:21:11;;;;;;;13.80;8.75;;;1.00;99.90;;;;;;5040047;28;20116;-74
2022/03/08 00:23:37;;;;;;;12.43;8.23;;;1.00;99.90;;;;;;5039777;28;20501;-74
2022/03/08 00:26:03;;;;;;;12.43;8.27;;;1.00;99.90;;;;;;5040111;28;20032;-74
2022/03/08 00:28:29;;;;;;;15.32;9.35;;;1.00;99.90;;;;;;5039792;28;20556;-74
2022/03/08 00:30:56;;;;;;;16.77;9.05;;;1.00;99.90;;;;;;5039433;28;20025;-74
2022/03/08 00:33:21;;;;;;;14.63;8.15;;;1.00;99.90;;;;;;5040606;28;20079;-74
2022/03/08 00:35:47;;;;;;;14.20;8.52;;;1.00;99.90;;;;;;5040202;28;20401;-74
2022/03/08 00:38:13;;;;;;;13.85;9.05;;;1.00;99.90;;;;;;5039079;28;20037;-74
2022/03/08 00:40:38;;;;;;;17.52;10.10;;;1.00;99.90;;;;;;5040026;28;20029;-74
2022/03/08 00:43:04;;;;;;;16.83;10.02;;;0.90;99.90;;;;;;5039572;28;20037;-74
2022/03/08 00:45:30;;;;;;;14.45;10.30;;;0.80;99.90;;;;;;5040063;28;20352;-75
2022/03/08 00:47:55;;;;;;;14.80;10.43;;;0.90;99.90;;;;;;5038501;28;20041;-74
2022/03/08 00:50:24;;;;;;;14.18;10.02;;;0.80;99.90;;;;;;5039657;28;20478;-74
2022/03/08 00:52:51;;;;;;;13.90;10.00;;;0.80;99.90;;;;;;5040400;28;20044;-75
2022/03/08 00:55:19;;;;;;;16.77;9.70;;;0.90;99.90;;;;;;5040097;28;20059;-74
2022/03/08 00:57:45;;;;;;;15.38;8.35;;;0.80;99.90;;;;;;5039846;28;20120;-74
2022/03/08 01:00:13;;;;;;;17.52;10.55;;;0.80;99.90;;;;;;5039053;28;20094;-74
2022/03/08 01:02:39;;;;;;;15.15;9.70;;;0.80;99.90;;;;;;5036810;28;21673;-74
2022/03/08 01:05:05;;;;;;;13.75;8.98;;;0.80;99.90;;;;;;5038991;28;20052;-74
2022/03/08 01:07:31;;;;;;;;;;;0.90;99.90;;;;;;5038695;28;20547;-74
2022/03/08 01:09:56;;;;;;;14.90;7.55;;;0.80;99.90;;;;;;5039581;28;19909;-74
2022/03/08 01:12:23;;;;;;;15.68;8.77;;;0.80;99.90;;;;;;5039629;28;20049;-74
2022/03/08 01:14:49;;;;;;;15.88;8.70;;;0.80;99.90;;;;;;5039534;28;20078;-74
2022/03/08 01:17:14;;;;;;;12.25;7.32;;;0.70;99.90;;;;;;5038253;28;20029;-74
2022/03/08 01:19:40;;;;;;;14.10;7.40;;;0.70;99.90;;;;;;5039953;28;20053;-74
2022/03/08 01:22:05;;;;;;;14.30;8.02;;;0.70;99.90;;;;;;5037814;28;20036;-74
2022/03/08 01:24:31;;;;;;;11.85;8.13;;;0.70;99.90;;;;;;5039228;28;20690;-74
2022/03/08 01:26:56;;;;;;;12.50;7.57;;;0.70;99.90;;;;;;5039199;28;20030;-74
2022/03/08 01:29:23;;;;;;;18.15;8.70;;;0.70;99.90;;;;;;5039112;28;20041;-75
2022/03/08 01:31:49;;;;;;;12.40;8.30;;;0.70;99.90;;;;;;5038390;28;20496;-74
2022/03/08 01:34:14;;;;;;;20.23;7.65;;;0.70;99.90;;;;;;5038441;28;20032;-74
2022/03/08 01:36:41;;;;;;;14.13;7.70;;;0.70;99.90;;;;;;5038259;28;20096;-74
2022/03/08 01:39:06;;;;;;;10.20;7.20;;;0.80;99.90;;;;;;5039297;28;20032;-74
2022/03/08 01:41:32;;;;;;;15.40;8.23;;;0.70;99.90;;;;;;5038440;28;20425;-74
2022/03/08 01:43:58;;;;;;;11.77;7.70;;;0.70;99.90;;;;;;5038448;28;20034;-74
2022/03/08 01:46:23;;;;;;;14.68;8.73;;;0.70;99.90;;;;;;5036972;28;20505;-74
2022/03/08 01:48:49;;;;;;;18.27;9.18;;;0.70;99.90;;;;;;5038793;28;20132;-74
2022/03/08 01:51:15;;;;;;;13.20;9.35;;;0.60;99.90;;;;;;5037190;28;20044;-74
2022/03/08 01:53:41;;;;;;;17.77;11.02;;;0.60;99.90;;;;;;5039260;28;20045;-74
2022/03/08 01:56:11;;;;;;;15.43;8.63;;;0.50;99.90;;;;;;5037864;28;20025;-73
2022/03/08 01:58:37;;;;;;;14.95;9.05;;;0.50;99.90;;;;;;5037253;28;20033;-74
2022/03/08 02:01:04;;;;;;;12.70;7.85;;;0.50;99.90;;;;;;5036507;28;20444;-74
2022/03/08 02:03:30;;;;;;;12.38;7.05;;;0.50;99.90;;;;;;5036463;28;20440;-73
2022/03/08 02:05:55;;;;;;;11.50;7.47;;;0.40;99.90;;;;;;5035869;28;20022;-73
2022/03/08 02:08:21;;;;;;;16.23;7.00;;;0.40;99.90;;;;;;5039309;28;20108;-74
2022/03/08 02:10:47;;;;;;;13.23;9.13;;;0.40;99.90;;;;;;5038583;28;20053;-73
2022/03/08 02:13:12;;;;;;;15.73;8.80;;;0.40;99.90;;;;;;5037966;28;20068;-73
2022/03/08 02:15:38;;;;;;;13.00;7.68;;;0.40;99.90;;;;;;5038472;28;20045;-73
2022/03/08 02:18:03;;;;;;;21.52;9.85;;;0.50;99.90;;;;;;5036845;28;20035;-73
2022/03/08 02:20:29;;;;;;;20.35;12.48;;;0.50;99.90;;;;;;5038173;28;20521;-73
2022/03/08 02:22:55;;;;;;;21.42;11.13;;;0.50;99.90;;;;;;5037966;28;20041;-73
2022/03/08 02:25:22;;;;;;;23.60;11.75;;;0.40;99.90;;;;;;5038455;28;20043;-73
2022/03/08 02:27:50;;;;;;;18.90;11.05;;;0.40;99.90;;;;;;5039177;28;20394;-73
2022/03/08 02:30:17;;;;;;;25.52;13.98;;;0.40;99.90;;;;;;5039213;28;20020;-73
2022/03/08 02:32:43;;;;;;;47.17;23.75;;;0.40;99.90;;;;;;5037712;28;20029;-73
2022/03/08 02:35:10;;;;;;;;;;;0.50;99.90;;;;;;5039312;28;20425;-73
2022/03/08 02:37:37;;;;;;;31.00;14.77;;;0.50;99.90;;;;;;5038191;28;19959;-73
2022/03/08 02:40:04;;;;;;;15.50;9.90;;;0.50;99.90;;;;;;5037631;28;20045;-73
2022/03/08 02:42:29;;;;;;;17.15;11.20;;;0.40;99.90;;;;;;5037595;28;20488;-73
2022/03/08 02:44:55;;;;;;;18.15;9.95;;;0.40;99.90;;;;;;5038038;28;20051;-73
2022/03/08 02:47:21;;;;;;;17.40;9.95;;;0.30;99.90;;;;;;5036556;28;20091;-74
2022/03/08 02:49:46;;;;;;;32.45;17.08;;;0.30;99.90;;;;;;5038854;28;20033;-73
2022/03/08 02:52:12;;;;;;;21.63;9.77;;;0.40;99.90;;;;;;5036994;28;20374;-74
2022/03/08 02:54:39;;;;;;;13.45;8.73;;;0.40;99.90;;;;;;5036193;28;20052;-74
2022/03/08 02:57:04;;;;;;;20.35;7.18;;;0.40;99.90;;;;;;5038291;28;20022;-73
2022/03/08 02:59:30;;;;;;;13.68;7.82;;;0.40;99.90;;;;;;5038184;28;20044;-74
2022/03/08 03:01:55;;;;;;;15.80;9.38;;;0.40;99.90;;;;;;5037089;28;20550;-73
2022/03/08 03:04:21;;;;;;;11.85;7.97;;;0.30;99.90;;;;;;5037171;28;20606;-74
2022/03/08 03:06:46;;;;;;;14.75;8.95;;;0.30;99.90;;;;;;5037744;28;20474;-74
2022/03/08 03:09:12;;;;;;;16.27;8.30;;;0.30;99.90;;;;;;5037436;28;20188;-73
2022/03/08 03:11:38;;;;;;;17.45;9.27;;;0.30;99.90;;;;;;5036818;28;20036;-73
2022/03/08 03:14:03;;;;;;;16.85;8.57;;;0.30;99.90;;;;;;5038609;28;20032;-74
2022/03/08 03:16:29;;;;;;;16.10;7.80;;;0.40;99.90;;;;;;5036675;28;20017;-74
2022/03/08 03:18:54;;;;;;;14.38;8.43;;;0.40;99.90;;;;;;5037532;28;20033;-73
2022/03/08 03:21:20;;;;;;;14.18;8.18;;;0.50;99.90;;;;;;5037398;28;20470;-73
2022/03/08 03:23:45;;;;;;;13.65;7.72;;;0.50;99.90;;;;;;5037951;28;20032;-73
2022/03/08 03:26:11;;;;;;;9.90;6.70;;;0.50;99.90;;;;;;5037407;28;20116;-73
2022/03/08 03:28:36;;;;;;;11.27;6.95;;;0.40;99.90;;;;;;5037407;28;20444;-73
2022/03/08 03:31:02;;;;;;;11.57;8.07;;;0.40;99.90;;;;;;5040417;28;20039;-73
2022/03/08 03:33:27;;;;;;;12.50;8.00;;;0.30;99.90;;;;;;5041519;28;20397;-73
2022/03/08 03:35:53;;;;;;;13.10;7.80;;;0.30;99.90;;;;;;5040981;28;20040;-74
2022/03/08 03:38:19;;;;;;;15.20;8.40;;;0.20;99.90;;;;;;5040557;28;20040;-73
2022/03/08 03:40:44;;;;;;;12.98;8.45;;;0.20;99.90;;;;;;5040538;28;20460;-73
2022/03/08 03:43:11;;;;;;;11.45;7.15;;;0.10;99.90;;;;;;5040197;28;20033;-73
2022/03/08 03:45:36;;;;;;;14.00;7.65;;;0.20;99.90;;;;;;5040760;28;20029;-73
2022/03/08 03:48:02;;;;;;;12.80;7.82;;;0.10;99.90;;;;;;5041064;28;20159;-73
2022/03/08 03:50:28;;;;;;;14.35;8.30;;;0.10;99.90;;;;;;5041222;28;20026;-73
2022/03/08 03:52:54;;;;;;;13.82;8.23;;;0.00;99.90;;;;;;5040688;28;20448;-72
2022/03/08 03:55:19;;;;;;;13.98;8.43;;;0.00;99.90;;;;;;5039768;28;20470;-73
2022/03/08 03:57:45;;;;;;;12.18;6.55;;;0.10;99.90;;;;;;5041017;28;20506;-73
2022/03/08 04:00:13;;;;;;;14.30;7.97;;;0.10;99.90;;;;;;5038979;28;20029;-73
2022/03/08 04:02:39;;;;;;;11.75;7.53;;;0.10;99.90;;;;;;5040559;28;20028;-73
2022/03/08 04:05:06;;;;;;;11.57;7.20;;;0.00;99.90;;;;;;5039723;28;20032;-73
2022/03/08 04:07:32;;;;;;;11.82;7.72;;;0.00;99.90;;;;;;5040977;28;20135;-73
2022/03/08 04:09:57;;;;;;;12.65;6.75;;;0.00;99.90;;;;;;5040440;28;20149;-73
2022/03/08 04:12:23;;;;;;;9.32;5.43;;;-0.10;99.90;;;;;;5040103;28;20108;-73
2022/03/08 04:14:48;;;;;;;13.57;6.05;;;-0.10;99.90;;;;;;5040264;28;20029;-73
2022/03/08 04:17:14;;;;;;;11.80;6.05;;;-0.10;99.90;;;;;;5039200;28;20048;-73
2022/03/08 04:19:40;;;;;;;12.05;7.18;;;-0.20;99.90;;;;;;5039717;28;20033;-73
2022/03/08 04:22:06;;;;;;;10.85;7.10;;;-0.20;99.90;;;;;;5040144;28;20043;-73
2022/03/08 04:24:32;;;;;;;10.25;5.75;;;-0.20;99.90;;;;;;5039764;28;20053;-73
2022/03/08 04:26:58;;;;;;;13.40;6.88;;;-0.20;99.90;;;;;;5039755;28;20052;-73
2022/03/08 04:29:23;;;;;;;11.27;6.63;;;-0.20;99.90;;;;;;5040374;28;20617;-73
2022/03/08 04:31:49;;;;;;;9.38;5.32;;;-0.20;99.90;;;;;;5039745;28;20075;-73
2022/03/08 04:34:15;;;;;;;11.75;6.65;;;-0.20;99.90;;;;;;5040997;28;20504;-74
2022/03/08 04:36:40;;;;;;;12.18;7.28;;;-0.30;99.90;;;;;;5039946;28;20021;-73
2022/03/08 04:39:06;;;;;;;10.77;6.13;;;-0.20;99.90;;;;;;5039963;28;20041;-72
2022/03/08 04:41:31;;;;;;;10.75;6.43;;;-0.20;99.90;;;;;;5039395;28;20602;-73
2022/03/08 04:43:57;;;;;;;19.52;9.98;;;-0.30;99.90;;;;;;5040462;28;20087;-73
2022/03/08 04:46:23;;;;;;;16.15;7.43;;;-0.20;99.90;;;;;;5038666;28;20087;-73
2022/03/08 04:48:48;;;;;;;14.27;8.20;;;-0.20;99.90;;;;;;5039475;28;20125;-73
2022/03/08 04:51:14;;;;;;;12.57;5.90;;;-0.20;99.90;;;;;;5039550;28;20163;-73
2022/03/08 04:53:40;;;;;;;12.93;7.28;;;-0.20;99.90;;;;;;5040052;28;20026;-73
2022/03/08 04:56:05;;;;;;;11.70;6.50;;;-0.30;99.90;;;;;;5039083;28;20104;-73
2022/03/08 04:58:31;;;;;;;12.07;7.22;;;-0.20;99.90;;;;;;5040352;28;20125;-73
2022/03/08 05:00:56;;;;;;;8.07;4.88;;;-0.20;99.90;;;;;;5037940;28;20017;-73
2022/03/08 05:03:22;;;;;;;11.23;7.28;;;-0.20;99.90;;;;;;5041113;28;20436;-74
2022/03/08 05:05:47;;;;;;;9.02;5.82;;;-0.30;99.90;;;;;;5038848;28;20025;-73
2022/03/08 05:08:14;;;;;;;11.80;6.60;;;-0.30;99.90;;;;;;5039866;28;20041;-73
2022/03/08 05:10:40;;;;;;;13.80;6.93;;;-0.30;99.90;;;;;;5039402;28;20021;-73
2022/03/08 05:13:07;;;;;;;13.68;6.72;;;-0.30;99.90;;;;;;5038257;28;20037;-74
2022/03/08 05:15:32;;;;;;;8.07;5.05;;;-0.30;99.90;;;;;;5038310;28;20021;-73
2022/03/08 05:17:58;;;;;;;10.40;6.05;;;-0.30;99.90;;;;;;5039711;28;20071;-73
2022/03/08 05:20:23;;;;;;;8.77;5.78;;;-0.30;99.90;;;;;;5038966;28;20033;-74
2022/03/08 05:22:49;;;;;;;8.93;6.05;;;-0.30;99.90;;;;;;5038868;28;20473;-73
2022/03/08 05:25:14;;;;;;;11.57;6.15;;;-0.20;99.90;;;;;;5039436;28;20033;-73
2022/03/08 05:27:40;;;;;;;13.70;6.93;;;-0.20;99.90;;;;;;5038416;28;21530;-74
2022/03/08 05:30:07;;;;;;;25.15;12.25;;;-0.20;99.90;;;;;;5037583;28;20035;-73
2022/03/08 05:32:32;;;;;;;28.67;12.43;;;-0.20;99.90;;;;;;5038566;28;20060;-74
2022/03/08 05:34:58;;;;;;;35.30;19.25;;;-0.20;99.90;;;;;;5039364;28;20127;-74
2022/03/08 05:37:23;;;;;;;36.28;18.40;;;-0.20;99.90;;;;;;5038793;28;20063;-74
2022/03/08 05:39:49;;;;;;;38.78;19.23;;;-0.30;99.90;;;;;;5039114;28;20325;-74
2022/03/08 05:42:15;;;;;;;40.70;20.98;;;-0.30;99.90;;;;;;5039095;28;20033;-74
2022/03/08 05:44:40;;;;;;;28.17;14.40;;;-0.30;99.90;;;;;;5038906;28;20170;-74
2022/03/08 05:47:06;;;;;;;18.33;10.35;;;-0.30;99.90;;;;;;5037637;28;20063;-74
2022/03/08 05:49:32;;;;;;;31.48;16.83;;;-0.30;99.90;;;;;;5036180;28;20032;-73
2022/03/08 05:51:57;;;;;;;14.88;7.50;;;-0.30;99.90;;;;;;5037897;28;20025;-74
2022/03/08 05:54:23;;;;;;;28.25;14.70;;;-0.30;99.90;;;;;;5037069;28;20079;-74
2022/03/08 05:56:49;;;;;;;26.25;12.80;;;-0.30;99.90;;;;;;5035420;28;20116;-74
2022/03/08 05:59:14;;;;;;;13.52;8.38;;;-0.30;99.90;;;;;;5037988;28;20036;-73
2022/03/08 06:01:40;;;;;;;25.77;13.85;;;-0.30;99.90;;;;;;5035995;28;20044;-73
2022/03/08 06:04:06;;;;;;;15.88;8.13;;;-0.30;99.90;;;;;;5037996;28;20598;-73
2022/03/08 06:06:32;;;;;;;25.75;8.25;;;-0.20;99.90;;;;;;5038201;28;20028;-74
2022/03/08 06:08:57;;;;;;;12.68;8.32;;;-0.20;99.90;;;;;;5037702;28;20048;-73
2022/03/08 06:11:22;;;;;;;14.65;8.55;;;-0.20;99.90;;;;;;5037030;28;20025;-73
2022/03/08 06:13:48;;;;;;;12.30;6.22;;;-0.20;99.90;;;;;;5037608;28;20021;-73
2022/03/08 06:16:14;;;;;;;11.90;6.47;;;-0.20;99.90;;;;;;5037829;28;20108;-73
2022/03/08 06:18:40;;;;;;;7.80;4.07;;;-0.20;99.90;;;;;;5036160;28;20029;-73
2022/03/08 06:21:05;;;;;;;;;;;-0.30;99.90;;;;;;5037856;28;20296;-73
2022/03/08 06:23:31;;;;;;;6.15;3.58;;;-0.30;99.90;;;;;;5038752;28;19920;-73
2022/03/08 06:25:56;;;;;;;8.90;6.38;;;-0.30;99.90;;;;;;5038003;28;20036;-73
2022/03/08 06:28:22;;;;;;;14.23;6.18;;;-0.20;99.90;;;;;;5038467;28;20029;-72
2022/03/08 06:30:47;;;;;;;24.35;8.60;;;-0.20;99.90;;;;;;5037499;28;20053;-72
2022/03/08 06:33:13;;;;;;;12.02;6.40;;;-0.10;99.90;;;;;;5035316;28;20347;-72
2022/03/08 06:35:38;;;;;;;12.48;5.50;;;-0.10;99.90;;;;;;5037524;28;20025;-72
2022/03/08 06:38:04;;;;;;;13.90;4.97;;;0.00;99.90;;;;;;5037449;28;20159;-72
2022/03/08 06:40:29;;;;;;;10.77;6.15;;;0.00;99.90;;;;;;5037410;28;20358;-72
2022/03/08 06:42:55;;;;;;;14.95;6.35;;;0.00;99.90;;;;;;5037278;28;20064;-72
2022/03/08 06:45:20;;;;;;;13.65;6.13;;;0.10;99.90;;;;;;5036864;28;20044;-72
2022/03/08 06:47:46;;;;;;;8.90;5.03;;;0.10;99.90;;;;;;5037344;28;20036;-72
2022/03/08 06:50:11;;;;;;;13.52;6.45;;;0.10;99.90;;;;;;5038687;28;20026;-72
2022/03/08 06:52:37;;;;;;;6.05;4.72;;;0.20;99.90;;;;;;5044372;22;20057;-70
2022/03/08 06:55:03;;;;;;;16.05;5.50;;;0.20;99.90;;;;;;5025662;28;20116;-70
2022/03/08 06:57:29;;;;;;;;;;;0.30;99.90;;;;;;5027500;28;20034;-70
2022/03/08 06:59:55;;;;;;;9.93;5.50;;;0.40;99.90;;;;;;5027763;28;20341;-70
2022/03/08 07:02:21;;;;;;;9.43;4.78;;;0.40;99.90;;;;;;5027488;28;20358;-70
2022/03/08 07:04:47;;;;;;;6.25;5.03;;;0.50;99.90;;;;;;5024070;28;20030;-70
2022/03/08 07:07:12;;;;;;;6.25;4.03;;;0.50;99.90;;;;;;5025819;28;20037;-73
2022/03/08 07:09:38;;;;;;;9.05;5.68;;;0.50;99.90;;;;;;5022840;28;20489;-71
2022/03/08 07:12:04;;;;;;;8.43;4.57;;;0.60;99.90;;;;;;5028279;28;20403;-71
2022/03/08 07:14:29;;;;;;;;;;;0.60;99.90;;;;;;5025321;28;20047;-71
2022/03/08 07:16:55;;;;;;;8.15;4.63;;;0.60;99.90;;;;;;5027748;28;20612;-71
2022/03/08 07:19:20;;;;;;;10.40;4.97;;;0.60;99.90;;;;;;5028958;28;20477;-72
2022/03/08 07:21:46;;;;;;;8.95;5.95;;;0.70;99.90;;;;;;5027371;28;20421;-70
2022/03/08 07:24:13;;;;;;;13.35;5.53;;;0.80;99.90;;;;;;5029084;28;20061;-74
2022/03/08 07:26:38;;;;;;;16.40;6.32;;;0.90;99.90;;;;;;5030021;28;20033;-73
2022/03/08 07:29:04;;;;;;;13.68;7.43;;;1.00;99.90;;;;;;5028107;28;20076;-73
2022/03/08 07:31:30;;;;;;;12.23;5.43;;;1.10;99.90;;;;;;5028851;28;20040;-73
2022/03/08 07:33:55;;;;;;;20.38;6.20;;;1.10;99.90;;;;;;5029410;28;20073;-72
2022/03/08 07:36:22;;;;;;;17.70;5.75;;;1.20;99.90;;;;;;5028822;28;20033;-71
2022/03/08 07:38:48;;;;;;;11.65;5.03;;;1.30;99.90;;;;;;5025752;28;20199;-72
2022/03/08 07:41:14;;;;;;;;;;;1.40;99.90;;;;;;5029826;28;20124;-71
2022/03/08 07:43:39;;;;;;;11.73;5.60;;;1.40;99.90;;;;;;5029573;28;20265;-72
2022/03/08 07:46:08;;;;;;;11.57;4.90;;;1.50;99.90;;;;;;5027985;28;20036;-71
2022/03/08 07:48:34;;;;;;;7.63;6.20;;;1.60;99.90;;;;;;5028254;28;20073;-73
2022/03/08 07:50:59;;;;;;;;;;;1.60;99.90;;;;;;5029214;28;20025;-72
2022/03/08 07:53:25;;;;;;;11.32;4.82;;;1.70;99.90;;;;;;5027795;28;19924;-71
2022/03/08 07:55:50;;;;;;;18.60;4.65;;;1.80;99.90;;;;;;5027012;28;20030;-72
2022/03/08 07:58:16;;;;;;;14.50;6.18;;;1.90;99.90;;;;;;5027365;28;20041;-73
2022/03/08 08:00:42;;;;;;;13.82;5.35;;;2.00;99.90;;;;;;5029620;28;20069;-71
2022/03/08 08:03:08;;;;;;;8.90;4.28;;;2.10;99.90;;;;;;5027258;28;20045;-71
2022/03/08 08:05:35;;;;;;;14.07;4.60;;;2.20;99.90;;;;;;5029391;28;20474;-70
2022/03/08 08:08:02;;;;;;;6.93;3.78;;;2.30;99.90;;;;;;5028150;28;20132;-72
2022/03/08 08:10:28;;;;;;;13.10;4.53;;;2.40;99.90;;;;;;5028764;28;20031;-70
2022/03/08 08:12:53;;;;;;;5.45;3.10;;;2.50;99.90;;;;;;5026064;28;20486;-70
2022/03/08 08:15:19;;;;;;;12.48;3.80;;;2.50;99.90;;;;;;5025796;28;20025;-71
2022/03/08 08:17:44;;;;;;;6.05;3.58;;;2.70;99.90;;;;;;5028591;28;20029;-72
2022/03/08 08:20:11;;;;;;;9.18;3.20;;;2.80;99.90;;;;;;5027530;28;20107;-71
2022/03/08 08:22:36;;;;;;;8.70;3.10;;;2.90;99.90;;;;;;5025761;28;20041;-71
2022/03/08 08:25:04;;;;;;;7.97;3.28;;;3.00;99.90;;;;;;5029093;28;20037;-71
2022/03/08 08:27:30;;;;;;;9.18;4.40;;;3.10;99.90;;;;;;5026985;28;20416;-70
2022/03/08 08:29:55;;;;;;;5.82;3.58;;;3.20;99.90;;;;;;5029614;28;20021;-70
2022/03/08 08:32:21;;;;;;;9.70;2.95;;;3.30;99.90;;;;;;5025049;28;20037;-69
2022/03/08 08:34:46;;;;;;;6.60;3.17;;;3.40;99.90;;;;;;5028876;28;20051;-70
2022/03/08 08:37:12;;;;;;;12.30;4.40;;;3.50;99.90;;;;;;5027344;28;20588;-72
2022/03/08 08:39:38;;;;;;;29.80;12.00;;;3.60;99.90;;;;;;5029005;28;20032;-72
2022/03/08 08:42:04;;;;;;;33.85;13.30;;;3.70;99.90;;;;;;5027789;28;20398;-70
2022/03/08 08:44:30;;;;;;;25.58;13.77;;;3.80;99.90;;;;;;5029408;28;20096;-70
2022/03/08 08:46:55;;;;;;;11.05;5.30;;;3.90;99.70;;;;;;5025714;28;20034;-71
2022/03/08 08:49:21;;;;;;;38.30;14.95;;;4.10;99.70;;;;;;5028497;28;20021;-68
2022/03/08 08:51:46;;;;;;;29.02;10.35;;;4.20;99.70;;;;;;5027860;28;20033;-69
2022/03/08 08:54:12;;;;;;;16.30;5.90;;;4.40;99.70;;;;;;5028666;28;20036;-74
2022/03/08 08:56:38;;;;;;;20.27;7.15;;;4.50;99.60;;;;;;5027775;28;20034;-72
2022/03/08 08:59:04;;;;;;;9.02;5.60;;;4.60;99.60;;;;;;5027727;28;20393;-72
2022/03/08 09:01:30;;;;;;;5.38;3.10;;;4.80;99.60;;;;;;5026399;28;20037;-76
2022/03/08 09:03:55;;;;;;;5.45;3.50;;;5.00;99.70;;;;;;5028392;28;20030;-75
2022/03/08 09:06:21;;;;;;;5.50;3.10;;;5.10;98.30;;;;;;5026056;28;20034;-74
2022/03/08 09:08:46;;;;;;;7.38;3.25;;;5.10;98.30;;;;;;5026698;28;20036;-75
2022/03/08 09:11:12;;;;;;;5.05;3.33;;;5.20;97.90;;;;;;5026537;28;20315;-73
2022/03/08 09:13:38;;;;;;;5.50;3.22;;;5.30;97.70;;;;;;5027506;28;20077;-73
2022/03/08 09:16:05;;;;;;;4.20;2.17;;;5.30;97.60;;;;;;5027333;28;20375;-73
2022/03/08 09:18:30;;;;;;;3.63;1.67;;;5.50;96.80;;;;;;5026505;28;20029;-73
2022/03/08 09:20:56;;;;;;;6.05;2.10;;;5.40;96.50;;;;;;5025694;28;20028;-73
2022/03/08 09:23:21;;;;;;;4.05;1.63;;;5.50;96.50;;;;;;5028015;28;20426;-72
2022/03/08 09:25:47;;;;;;;5.00;2.03;;;5.50;96.70;;;;;;5027152;28;20065;-74
2022/03/08 09:28:13;;;;;;;5.35;1.75;;;5.60;96.80;;;;;;5027709;28;20598;-72
2022/03/08 09:30:38;;;;;;;6.03;2.13;;;5.80;96.70;;;;;;5025840;28;20044;-75
2022/03/08 09:33:05;;;;;;;3.65;1.35;;;5.90;97.10;;;;;;5025489;28;20082;-71
2022/03/08 09:35:30;;;;;;;;;;;6.00;96.70;;;;;;5028259;28;20024;-72
2022/03/08 09:37:57;;;;;;;2.33;1.27;;;6.10;95.10;;;;;;5026343;28;19913;-73
2022/03/08 09:40:23;;;;;;;7.28;2.20;;;6.20;94.00;;;;;;5027931;28;20045;-73
2022/03/08 09:42:49;;;;;;;4.25;2.38;;;6.30;94.20;;;;;;5027167;28;20455;-72
2022/03/08 09:45:16;;;;;;;4.40;1.05;;;6.30;94.90;;;;;;5026285;28;20033;-73
2022/03/08 09:47:41;;;;;;;;;;;6.40;93.70;;;;;;5029346;28;20042;-72
2022/03/08 09:50:08;;;;;;;1.70;0.85;;;6.50;94.10;;;;;;5026517;28;20293;-72
2022/03/08 09:52:36;;;;;;;3.17;1.40;;;6.50;92.40;;;;;;5026033;28;20442;-72
2022/03/08 09:55:03;;;;;;;1.65;0.80;;;6.50;91.30;;;;;;5024981;28;20394;-72
2022/03/08 09:57:29;;;;;;;2.50;1.00;;;6.50;89.00;;;;;;5026523;28;20048;-72
2022/03/08 09:59:55;;;;;;;4.25;1.85;;;6.60;91.90;;;;;;5026659;28;20037;-73
2022/03/08 10:02:23;;;;;;;2.00;1.02;;;6.70;91.70;;;;;;5025659;28;20029;-74
2022/03/08 10:05:05;;;;;;;0.98;0.50;;;6.80;87.00;;;;;;5025838;28;20116;-74
2022/03/08 10:07:31;;;;;;;2.75;1.10;;;6.80;83.40;;;;;;5027078;28;20475;-72
2022/03/08 10:09:58;;;;;;;3.13;1.17;;;6.80;85.50;;;;;;5026772;28;20168;-71
2022/03/08 10:12:24;;;;;;;0.82;0.45;;;6.90;85.90;;;;;;5024663;28;20504;-72
2022/03/08 10:14:50;;;;;;;;;;;6.90;78.40;;;;;;5027950;28;20040;-71
2022/03/08 10:17:36;;;;;;;3.60;0.70;;;6.90;80.10;;;;;;5026145;28;19913;-71
2022/03/08 10:20:03;;;;;;;2.97;1.23;;;6.90;79.10;;;;;;5025530;28;20029;-72
2022/03/08 10:22:35;;;;;;;3.05;1.00;;;7.00;81.60;;;;;;5025331;28;20291;-72
2022/03/08 10:25:18;;;;;;;6.40;1.20;;;7.10;81.50;;;;;;5026122;28;20030;-73
2022/03/08 10:27:57;;;;;;;4.15;0.60;;;7.40;81.70;;;;;;5025866;28;20045;-72
2022/03/08 10:30:25;;;;;;;2.83;0.60;;;7.50;74.50;;;;;;5025432;28;20141;-72
2022/03/08 10:32:54;;;;;;;1.58;0.50;;;7.50;70.40;;;;;;5025320;28;20063;-76
2022/03/08 10:35:28;;;;;;;4.45;0.82;;;7.50;71.90;;;;;;5027026;28;20045;-72
2022/03/08 10:37:57;;;;;;;1.88;0.77;;;7.60;74.70;;;;;;5027173;28;20531;-71
2022/03/08 10:40:30;;;;;;;5.38;1.92;;;7.70;74.30;;;;;;5031109;28;20170;-72
2022/03/08 10:43:03;;;;;;;3.58;1.25;;;7.80;81.60;;;;;;5029844;28;20083;-73
2022/03/08 10:45:30;;;;;;;2.33;1.10;;;8.00;79.20;;;;;;5031330;28;20402;-72
2022/03/08 10:47:56;;;;;;;1.85;0.80;;;8.20;84.30;;;;;;5030861;28;20021;-75
2022/03/08 10:50:29;;;;;;;1.48;0.60;;;8.40;75.70;;;;;;5028818;28;20112;-72
2022/03/08 10:52:58;;;;;;;2.67;1.33;;;8.40;74.20;;;;;;5030170;28;20056;-72
2022/03/08 10:55:31;;;;;;;5.13;3.03;;;8.40;69.20;;;;;;5028676;28;20033;-77
2022/03/08 10:58:03;;;;;;;4.03;0.82;;;8.40;74.10;;;;;;5030527;28;20029;-71
2022/03/08 11:00:37;;;;;;;2.67;1.10;;;8.40;77.30;;;;;;5028013;28;20101;-74
2022/03/08 11:03:05;;;;;;;3.20;0.52;;;8.50;76.30;;;;;;5029934;28;20120;-74
2022/03/08 11:05:44;;;;;;;0.90;0.30;;;8.60;63.90;;;;;;5030731;28;20028;-73
2022/03/08 11:08:10;;;;;;;1.80;0.57;;;8.60;63.20;;;;;;5029252;28;20251;-73
2022/03/08 11:10:37;;;;;;;2.28;0.60;;;8.60;65.30;;;;;;5031812;28;20521;-73
2022/03/08 11:13:03;;;;;;;2.08;0.90;;;8.60;63.50;;;;;;5028168;28;20466;-71
2022/03/08 11:15:32;;;;;;;0.80;0.40;;;8.70;67.20;;;;;;5027963;28;20030;-72
2022/03/08 11:17:59;;;;;;;3.45;0.63;;;8.70;61.50;;;;;;5029655;28;20113;-72
2022/03/08 11:20:26;;;;;;;1.42;0.40;;;8.70;61.50;;;;;;5029506;28;20626;-72
2022/03/08 11:22:55;;;;;;;2.15;0.40;;;8.60;61.30;;;;;;5029750;28;20121;-71
2022/03/08 11:25:23;;;;;;;1.80;1.27;;;8.70;63.00;;;;;;5030235;28;20120;-71
2022/03/08 11:27:49;;;;;;;3.35;1.20;;;8.70;61.80;;;;;;5026333;28;20052;-72
2022/03/08 11:30:16;;;;;;;;;;;8.70;60.20;;;;;;5025536;28;20446;-71
2022/03/08 11:33:01;;;;;;;4.85;2.28;;;8.70;60.60;;;;;;5028996;28;20355;-72
2022/03/08 11:35:33;;;;;;;10.82;4.97;;;8.70;58.00;;;;;;5030153;28;20049;-71
2022/03/08 11:38:00;;;;;;;3.97;0.70;;;8.70;58.20;;;;;;5030142;28;20026;-71
2022/03/08 11:40:25;;;;;;;23.77;10.18;;;8.80;57.10;;;;;;5030315;28;20474;-71
2022/03/08 11:42:53;;;;;;;;;;;8.90;56.80;;;;;;5030123;28;20037;-71
2022/03/08 11:45:23;;;;;;;2.08;0.77;;;9.00;59.40;;;;;;5028984;28;20004;-71
2022/03/08 11:47:53;;;;;;;2.15;1.35;;;9.00;56.90;;;;;;5029348;28;20048;-71
2022/03/08 11:50:27;;;;;;;1.48;0.60;;;9.10;58.80;;;;;;5031202;28;20017;-71
2022/03/08 11:53:15;;;;;;;2.42;0.63;;;9.20;56.20;;;;;;5031340;28;20483;-71
2022/03/08 11:55:43;;;;;;;4.13;0.75;;;9.30;56.70;;;;;;5029482;28;20033;-71
2022/03/08 11:58:16;;;;;;;2.88;1.13;;;9.40;56.20;;;;;;5024925;28;20047;-76
2022/03/08 12:00:58;;;;;;;2.05;0.82;;;9.50;57.10;;;;;;5027810;28;20178;-76
2022/03/08 12:03:24;;;;;;;3.33;1.23;;;9.50;53.50;;;;;;5028781;28;20080;-75
2022/03/08 12:05:56;;;;;;;;;;;9.50;55.50;;;;;;5028585;28;20390;-78
2022/03/08 12:08:21;;;;;;;10.80;3.33;;;9.60;53.50;;;;;;5028834;28;19991;-76
2022/03/08 12:10:52;;;;;;;;;;;9.70;53.20;;;;;;5030253;28;20105;-76
2022/03/08 12:13:36;;;;;;;2.22;1.00;;;9.70;52.40;;;;;;5027481;28;19913;-76
2022/03/08 12:16:10;;;;;;;3.42;1.02;;;9.70;54.00;;;;;;5028496;28;20083;-76
2022/03/08 12:18:48;;;;;;;1.98;0.90;;;9.80;53.20;;;;;;5028780;28;20049;-75
2022/03/08 12:21:25;;;;;;;2.50;0.95;;;9.90;54.00;;;;;;5026449;28;20029;-75
2022/03/08 12:24:01;;;;;;;5.50;2.92;;;9.90;51.60;;;;;;5027829;28;20033;-76
2022/03/08 12:26:28;;;;;;;3.70;2.92;;;10.00;51.20;;;;;;5028880;28;20142;-75
2022/03/08 12:29:14;;;;;;;3.10;1.02;;;10.00;56.30;;;;;;5028353;28;20092;-74
2022/03/08 12:31:58;;;;;;;4.20;1.58;;;10.10;53.00;;;;;;5027494;28;20045;-74
2022/03/08 12:34:33;;;;;;;2.30;1.75;;;10.20;53.80;;;;;;5027619;28;20036;-73
2022/03/08 12:37:15;;;;;;;3.00;1.20;;;10.20;52.10;;;;;;5027236;28;20027;-72
2022/03/08 12:40:03;;;;;;;2.40;1.05;;;10.20;54.60;;;;;;5028991;28;20033;-76
2022/03/08 12:42:42;;;;;;;3.03;1.55;;;10.20;53.30;;;;;;5025113;28;20048;-81
2022/03/08 12:45:14;;;;;;;3.47;1.27;;;10.10;53.10;;;;;;5024536;28;20146;-77
2022/03/08 12:48:02;;;;;;;1.70;0.77;;;10.20;52.80;;;;;;5027104;28;20037;-77
2022/03/08 12:50:32;;;;;;;3.47;0.90;;;10.20;50.90;;;;;;5027767;28;20120;-76